Time;durP1;ratioP1;P1;durP2;ratioP2;P2;SDS_P1;SDS_P2;PMS_P1;PMS_P2;Temp;Humidity;BMP_temperature;BMP_pressure;BME280_temperature;BME280_humidity;BME280_pressure;Samples;Min_cycle;Max_cycle;Signal;HPM_P1;HPM_P2
2022/11/18 00:00:47;;;;;;;29.37;17.43;;;5.90;99.90;;;;;;5086064;28;20202;-80
2022/11/18 00:03:14;;;;;;;28.70;16.57;;;5.90;99.90;;;;;;5092392;28;20289;-79
2022/11/18 00:05:41;;;;;;;30.47;15.40;;;5.90;99.90;;;;;;5092599;28;20570;-79
2022/11/18 00:08:08;;;;;;;30.13;17.80;;;5.90;99.90;;;;;;5098449;28;20221;-80
2022/11/18 00:10:37;;;;;;;30.63;16.50;;;6.00;99.90;;;;;;5110269;28;20566;-79
2022/11/18 00:15:49;;;;;;;32.30;17.67;;;6.00;99.90;;;;;;5086185;28;20188;-80
2022/11/18 00:18:16;;;;;;;27.87;13.33;;;5.90;99.90;;;;;;5113485;28;20228;-80
2022/11/18 00:20:43;;;;;;;29.77;14.90;;;5.90;99.90;;;;;;5110122;28;20198;-79
2022/11/18 00:23:09;;;;;;;33.77;19.23;;;5.90;99.90;;;;;;5091446;28;20210;-80
2022/11/18 00:25:36;;;;;;;32.37;19.43;;;5.90;99.90;;;;;;5100939;28;20193;-79
2022/11/18 00:28:05;;;;;;;33.83;19.90;;;5.90;99.90;;;;;;5116941;28;20827;-79
2022/11/18 00:30:31;;;;;;;34.33;17.93;;;5.90;99.90;;;;;;5113412;28;20232;-80
2022/11/18 00:32:58;;;;;;;35.00;16.47;;;5.90;99.90;;;;;;5096317;28;20206;-80
2022/11/18 00:35:25;;;;;;;30.67;16.57;;;5.90;99.90;;;;;;5107244;28;20201;-80
2022/11/18 00:37:52;;;;;;;33.93;15.53;;;5.90;99.90;;;;;;5098927;28;20630;-80
2022/11/18 00:40:19;;;;;;;34.53;17.73;;;6.00;99.90;;;;;;5110659;28;20189;-80
2022/11/18 00:42:50;;;;;;;35.40;18.93;;;5.90;99.90;;;;;;5115738;28;20201;-80
2022/11/18 00:45:19;;;;;;;34.30;17.53;;;5.90;99.90;;;;;;5100122;28;20194;-80
2022/11/18 00:47:46;;;;;;;38.07;22.63;;;6.00;99.90;;;;;;5115672;28;20216;-79
2022/11/18 00:50:13;;;;;;;35.40;18.57;;;5.90;99.90;;;;;;5114596;28;20706;-79
2022/11/18 00:52:39;;;;;;;34.73;18.83;;;5.90;99.90;;;;;;5096520;28;20201;-79
2022/11/18 00:55:07;;;;;;;34.30;17.67;;;5.90;99.90;;;;;;5096524;28;20198;-79
2022/11/18 00:57:33;;;;;;;31.03;17.63;;;5.90;99.90;;;;;;5104757;28;20224;-80
2022/11/18 01:00:00;;;;;;;32.23;18.00;;;6.00;99.90;;;;;;5116702;28;20201;-79
2022/11/18 01:02:28;;;;;;;27.80;16.43;;;5.90;99.90;;;;;;5116212;28;20197;-79
2022/11/18 01:04:55;;;;;;;32.10;15.30;;;5.90;99.90;;;;;;5109566;28;20198;-80
2022/11/18 01:07:22;;;;;;;27.23;14.90;;;5.90;99.90;;;;;;5097213;28;20236;-79
2022/11/18 01:09:49;;;;;;;27.30;17.20;;;5.90;99.90;;;;;;5097220;28;20248;-79
2022/11/18 01:15:00;;;;;;;21.90;13.60;;;6.00;99.90;;;;;;5084781;28;20289;-79
2022/11/18 01:17:29;;;;;;;24.57;11.27;;;5.90;99.90;;;;;;5109022;28;20221;-79
2022/11/18 01:19:56;;;;;;;24.93;13.13;;;6.00;99.90;;;;;;5116071;28;20572;-79
2022/11/18 01:22:23;;;;;;;26.17;15.77;;;5.90;99.90;;;;;;5116752;28;20205;-80
2022/11/18 01:24:50;;;;;;;29.40;15.97;;;6.00;99.90;;;;;;5091116;28;20202;-79
2022/11/18 01:27:17;;;;;;;26.73;15.80;;;6.00;99.90;;;;;;5089634;28;20609;-79
2022/11/18 01:29:44;;;;;;;24.00;12.13;;;6.00;99.90;;;;;;5094124;28;20609;-80
2022/11/18 01:32:10;;;;;;;25.07;15.00;;;5.90;99.90;;;;;;5089374;28;20202;-80
2022/11/18 01:34:38;;;;;;;25.90;16.10;;;6.00;99.90;;;;;;5102679;28;20221;-79
2022/11/18 01:37:05;;;;;;;27.33;14.07;;;6.00;99.90;;;;;;5094631;28;20225;-80
2022/11/18 01:39:32;;;;;;;26.83;13.70;;;6.00;99.90;;;;;;5095752;28;20661;-80
2022/11/18 01:41:59;;;;;;;26.10;15.63;;;6.00;99.90;;;;;;5111345;28;20656;-80
2022/11/18 01:44:58;;;;;;;23.77;15.00;;;6.00;99.90;;;;;;5113603;28;20575;-79
2022/11/18 01:47:28;;;;;;;24.30;15.57;;;6.00;99.90;;;;;;5097368;28;20251;-80
2022/11/18 01:49:56;;;;;;;25.30;15.00;;;5.90;99.90;;;;;;5114668;28;20688;-79
2022/11/18 01:52:23;;;;;;;25.27;13.70;;;5.90;99.90;;;;;;5115602;28;20817;-80
2022/11/18 01:54:56;;;;;;;24.20;14.63;;;5.90;99.90;;;;;;5075208;28;20203;-80
2022/11/18 01:57:26;;;;;;;23.73;15.23;;;5.90;99.90;;;;;;5111350;28;20231;-79
2022/11/18 01:59:57;;;;;;;28.60;14.47;;;5.80;99.90;;;;;;5096117;28;20838;-79
2022/11/18 02:02:24;;;;;;;25.23;13.30;;;5.90;99.90;;;;;;5078313;28;20206;-79
2022/11/18 02:04:54;;;;;;;26.97;16.03;;;5.90;99.90;;;;;;5096018;28;20291;-80
2022/11/18 02:07:22;;;;;;;25.40;15.37;;;5.90;99.90;;;;;;5100282;28;20225;-79
2022/11/18 02:09:51;;;;;;;23.37;11.63;;;5.80;99.90;;;;;;5095238;28;20217;-80
2022/11/18 02:12:17;;;;;;;26.37;14.40;;;5.80;99.90;;;;;;5092436;28;20225;-79
2022/11/18 02:14:47;;;;;;;24.73;14.37;;;5.80;99.90;;;;;;5107050;28;20203;-80
2022/11/18 02:17:24;;;;;;;26.00;16.47;;;5.80;99.90;;;;;;5114910;28;20217;-79
2022/11/18 02:20:14;;;;;;;26.00;14.93;;;5.80;99.90;;;;;;5116049;28;20203;-79
2022/11/18 02:23:04;;;;;;;26.13;14.90;;;5.80;99.90;;;;;;5107154;28;20649;-79
2022/11/18 02:25:41;;;;;;;25.57;16.07;;;5.80;99.90;;;;;;5115390;28;20793;-79
2022/11/18 02:28:29;;;;;;;26.10;16.60;;;5.80;99.90;;;;;;5098283;28;20231;-79
2022/11/18 02:31:02;;;;;;;24.33;14.60;;;5.80;99.90;;;;;;5091672;28;20209;-79
2022/11/18 02:33:35;;;;;;;27.23;13.17;;;5.70;99.90;;;;;;5112605;28;20197;-80
2022/11/18 02:36:08;;;;;;;23.30;11.67;;;5.70;99.90;;;;;;5110233;28;20194;-79
2022/11/18 02:38:42;;;;;;;25.13;11.93;;;5.70;99.90;;;;;;5077503;28;20226;-79
2022/11/18 02:41:13;;;;;;;21.20;10.13;;;5.70;99.90;;;;;;5074262;28;20631;-79
2022/11/18 02:43:43;;;;;;;24.67;14.57;;;5.60;99.90;;;;;;5071773;28;20198;-79
2022/11/18 02:46:15;;;;;;;23.80;14.83;;;5.70;99.90;;;;;;5108418;28;20703;-79
2022/11/18 02:48:46;;;;;;;25.30;14.83;;;5.70;99.90;;;;;;5094103;28;20680;-79
2022/11/18 02:51:17;;;;;;;24.67;11.47;;;5.70;99.90;;;;;;5094681;28;20240;-79
2022/11/18 02:53:46;;;;;;;27.80;12.40;;;5.60;99.90;;;;;;5093862;28;20254;-79
2022/11/18 02:56:14;;;;;;;24.07;14.77;;;5.70;99.90;;;;;;5094026;28;20268;-79
2022/11/18 02:58:41;;;;;;;22.50;13.43;;;5.70;99.90;;;;;;5111098;28;20217;-80
2022/11/18 03:01:19;;;;;;;24.33;13.80;;;5.60;99.90;;;;;;5094358;28;20205;-79
2022/11/18 03:03:46;;;;;;;25.33;14.77;;;5.70;99.90;;;;;;5087435;28;20210;-79
2022/11/18 03:06:27;;;;;;;27.33;13.23;;;5.60;99.90;;;;;;5073813;28;20206;-79
2022/11/18 03:09:03;;;;;;;23.97;14.27;;;5.60;99.90;;;;;;5089974;28;20218;-80
2022/11/18 03:11:33;;;;;;;24.70;14.73;;;5.60;99.90;;;;;;5100120;28;20213;-79
2022/11/18 03:14:09;;;;;;;23.80;12.40;;;5.60;99.90;;;;;;5105562;28;20216;-79
2022/11/18 03:16:43;;;;;;;23.60;14.40;;;5.60;99.90;;;;;;5099401;28;20214;-80
2022/11/18 03:19:20;;;;;;;22.33;11.90;;;5.60;99.90;;;;;;5108517;28;20712;-80
2022/11/18 03:21:59;;;;;;;24.50;14.33;;;5.60;99.90;;;;;;5086336;28;20197;-79
2022/11/18 03:24:30;;;;;;;25.23;15.23;;;5.50;99.90;;;;;;5093860;28;20212;-80
2022/11/18 03:27:02;;;;;;;23.53;13.90;;;5.50;99.90;;;;;;5107089;28;20208;-79
2022/11/18 03:29:33;;;;;;;23.23;14.07;;;5.50;99.90;;;;;;5094610;28;20255;-79
2022/11/18 03:32:06;;;;;;;26.43;14.80;;;5.50;99.90;;;;;;5093696;28;20193;-79
2022/11/18 03:34:38;;;;;;;23.63;10.73;;;5.50;99.90;;;;;;5093475;28;20292;-79
2022/11/18 03:37:09;;;;;;;25.27;13.63;;;5.50;99.90;;;;;;5094589;28;20254;-80
2022/11/18 03:39:39;;;;;;;23.27;13.57;;;5.50;99.90;;;;;;5101936;28;20205;-80
2022/11/18 03:42:12;;;;;;;26.37;14.77;;;5.40;99.90;;;;;;5110000;28;20208;-80
2022/11/18 03:44:44;;;;;;;25.83;14.03;;;5.40;99.90;;;;;;5089247;28;20206;-80
2022/11/18 03:47:17;;;;;;;22.90;12.67;;;5.50;99.90;;;;;;5095244;28;20217;-79
2022/11/18 03:49:47;;;;;;;19.83;9.70;;;5.40;99.90;;;;;;5113243;28;20223;-80
2022/11/18 03:52:18;;;;;;;21.83;11.90;;;5.40;99.90;;;;;;5096667;28;20190;-80
2022/11/18 03:54:48;;;;;;;23.27;12.43;;;5.40;99.90;;;;;;5096209;28;20201;-80
2022/11/18 03:57:19;;;;;;;22.47;12.87;;;5.40;99.90;;;;;;5086797;28;20228;-80
2022/11/18 03:59:51;;;;;;;20.60;11.27;;;5.40;99.90;;;;;;5116052;28;20197;-80
2022/11/18 04:02:23;;;;;;;22.10;12.03;;;5.40;99.90;;;;;;5118026;28;20197;-80
2022/11/18 04:04:52;;;;;;;20.57;11.07;;;5.40;99.90;;;;;;5111171;28;20282;-80
2022/11/18 04:07:23;;;;;;;23.47;13.03;;;5.40;99.90;;;;;;5114511;28;20213;-79
2022/11/18 04:09:56;;;;;;;19.73;9.37;;;5.40;99.90;;;;;;5095732;28;20222;-79
2022/11/18 04:12:27;;;;;;;20.47;11.00;;;5.30;99.90;;;;;;5097411;28;20212;-80
2022/11/18 04:14:55;;;;;;;22.67;10.73;;;5.30;99.90;;;;;;5098492;28;20208;-80
2022/11/18 04:17:26;;;;;;;21.97;11.97;;;5.30;99.90;;;;;;5089151;28;20274;-80
2022/11/18 04:19:53;;;;;;;23.27;12.70;;;5.40;99.90;;;;;;5118390;28;20200;-80
2022/11/18 04:22:20;;;;;;;22.93;12.43;;;5.30;99.90;;;;;;5113464;28;20212;-80
2022/11/18 04:24:47;;;;;;;21.53;11.83;;;5.30;99.90;;;;;;5103087;28;20195;-80
2022/11/18 04:27:14;;;;;;;22.17;12.13;;;5.30;99.90;;;;;;5117926;28;20228;-79
2022/11/18 04:29:40;;;;;;;23.00;11.83;;;5.30;99.90;;;;;;5118637;28;20203;-80
2022/11/18 04:32:07;;;;;;;21.50;11.40;;;5.30;99.90;;;;;;5104512;28;20223;-81
2022/11/18 04:34:35;;;;;;;23.10;12.23;;;5.30;99.90;;;;;;5115635;28;20211;-82
2022/11/18 04:37:02;;;;;;;21.57;12.50;;;5.30;99.90;;;;;;5116506;28;20226;-80
2022/11/18 04:39:29;;;;;;;21.43;12.87;;;5.30;99.90;;;;;;5117705;28;20656;-81
2022/11/18 04:41:56;;;;;;;22.20;12.37;;;5.30;99.90;;;;;;5118083;28;20197;-80
2022/11/18 04:44:23;;;;;;;20.10;11.77;;;5.30;99.90;;;;;;5117472;28;20201;-81
2022/11/18 04:46:50;;;;;;;21.83;12.10;;;5.20;99.90;;;;;;5117553;28;20201;-80
2022/11/18 04:49:17;;;;;;;21.43;12.77;;;5.20;99.90;;;;;;5117353;28;20226;-80
2022/11/18 04:51:46;;;;;;;19.87;10.93;;;5.30;99.90;;;;;;5116627;28;20225;-81
2022/11/18 04:54:14;;;;;;;22.30;12.27;;;5.20;99.90;;;;;;5117122;28;20204;-80
2022/11/18 04:56:41;;;;;;;22.63;12.37;;;5.10;99.90;;;;;;5117356;28;20201;-81
2022/11/18 04:59:09;;;;;;;21.37;12.00;;;5.10;99.90;;;;;;5116415;28;20221;-80
2022/11/18 05:01:36;;;;;;;20.77;12.30;;;5.10;99.90;;;;;;5116424;28;20201;-81
2022/11/18 05:04:04;;;;;;;23.63;11.47;;;5.10;99.90;;;;;;5117003;28;20591;-80
2022/11/18 05:06:31;;;;;;;21.90;12.33;;;5.10;99.90;;;;;;5116204;28;20201;-81
2022/11/18 05:09:01;;;;;;;22.07;11.87;;;5.10;99.90;;;;;;5117115;28;20229;-81
2022/11/18 05:14:12;;;;;;;22.20;12.33;;;5.10;99.90;;;;;;5117277;28;20200;-81
2022/11/18 05:16:39;;;;;;;24.30;14.27;;;5.10;99.90;;;;;;5117377;28;20201;-80
2022/11/18 05:19:07;;;;;;;23.13;13.63;;;5.10;99.90;;;;;;5117051;28;20252;-80
2022/11/18 05:21:34;;;;;;;23.77;12.77;;;5.10;99.90;;;;;;5116622;28;20687;-80
2022/11/18 05:24:03;;;;;;;26.40;12.13;;;5.10;99.90;;;;;;5116820;28;20205;-80
2022/11/18 05:26:29;;;;;;;25.40;13.57;;;5.10;99.90;;;;;;5117130;28;20676;-80
2022/11/18 05:28:57;;;;;;;26.03;14.70;;;5.10;99.90;;;;;;5117022;28;20857;-80
2022/11/18 05:31:23;;;;;;;23.93;13.70;;;5.10;99.90;;;;;;5116345;28;20588;-81
2022/11/18 05:33:50;;;;;;;24.17;12.77;;;5.00;99.90;;;;;;5117291;28;20219;-80
2022/11/18 05:36:19;;;;;;;25.63;14.27;;;5.00;99.90;;;;;;5116957;28;20668;-81
2022/11/18 05:38:46;;;;;;;25.87;13.67;;;5.00;99.90;;;;;;5116744;28;20232;-81
2022/11/18 05:43:09;;;;;;;23.23;11.63;;;5.00;99.90;;;;;;5116734;28;20208;-80
2022/11/18 05:44:02;;;;;;;25.80;14.00;;;5.00;99.90;;;;;;5116310;28;20242;-80
2022/11/18 05:46:29;;;;;;;24.20;13.27;;;4.90;99.90;;;;;;5116950;28;20619;-81
2022/11/18 05:48:56;;;;;;;25.17;13.87;;;4.90;99.90;;;;;;5115971;28;20550;-80
2022/11/18 05:51:23;;;;;;;25.00;13.60;;;5.00;99.90;;;;;;5115451;28;20221;-80
2022/11/18 05:53:52;;;;;;;24.60;13.73;;;4.90;99.90;;;;;;5115974;28;20201;-81
2022/11/18 05:56:23;;;;;;;22.73;12.47;;;4.90;99.90;;;;;;5102038;28;20212;-80
2022/11/18 05:58:50;;;;;;;23.47;12.27;;;4.90;99.90;;;;;;5092732;28;20237;-81
2022/11/18 06:01:20;;;;;;;25.43;13.50;;;4.80;99.90;;;;;;5089479;28;20220;-81
2022/11/18 06:03:48;;;;;;;25.13;13.37;;;4.80;99.90;;;;;;5088163;28;20204;-81
2022/11/18 06:06:19;;;;;;;25.27;12.90;;;4.80;99.90;;;;;;5093052;28;20200;-80
2022/11/18 06:08:50;;;;;;;24.30;12.10;;;4.80;99.90;;;;;;5091905;28;20287;-81
2022/11/18 06:11:21;;;;;;;23.13;12.83;;;4.80;99.90;;;;;;5095074;28;20232;-81
2022/11/18 06:13:51;;;;;;;23.77;13.00;;;4.80;99.90;;;;;;5089383;28;20212;-80
2022/11/18 06:16:22;;;;;;;23.47;12.77;;;4.80;99.90;;;;;;5096806;28;20198;-80
2022/11/18 06:18:49;;;;;;;23.93;12.93;;;4.70;99.90;;;;;;5090047;28;20302;-80
2022/11/18 06:21:16;;;;;;;23.37;12.33;;;4.70;99.90;;;;;;5099645;28;20210;-80
2022/11/18 06:23:44;;;;;;;23.00;11.47;;;4.70;99.90;;;;;;5089537;28;20202;-80
2022/11/18 06:26:13;;;;;;;21.40;10.80;;;4.60;99.90;;;;;;5092843;28;20209;-81
2022/11/18 06:28:42;;;;;;;19.97;11.47;;;4.60;99.90;;;;;;5089166;28;20240;-81
2022/11/18 06:31:09;;;;;;;23.00;12.17;;;4.70;99.90;;;;;;5086011;28;20249;-81
2022/11/18 06:33:36;;;;;;;25.20;13.53;;;4.70;99.90;;;;;;5088538;28;20197;-81
2022/11/18 06:36:03;;;;;;;24.23;13.70;;;4.70;99.90;;;;;;5093041;28;20271;-82
2022/11/18 06:38:30;;;;;;;23.00;12.13;;;4.60;99.90;;;;;;5092369;28;20546;-81
2022/11/18 06:41:00;;;;;;;22.80;12.10;;;4.60;99.90;;;;;;5091899;28;20196;-81
2022/11/18 06:43:40;;;;;;;25.00;12.43;;;4.50;99.90;;;;;;5085234;28;20206;-81
2022/11/18 06:48:56;;;;;;;22.50;11.93;;;4.50;99.90;;;;;;5095495;28;20247;-80
2022/11/18 06:51:22;;;;;;;22.00;11.83;;;4.50;99.90;;;;;;5096988;28;20894;-80
2022/11/18 06:53:49;;;;;;;21.10;12.13;;;4.60;99.90;;;;;;5109808;28;20298;-81
2022/11/18 06:56:18;;;;;;;20.40;11.47;;;4.50;99.90;;;;;;5080459;28;20202;-81
2022/11/18 06:58:45;;;;;;;22.40;12.07;;;4.50;99.90;;;;;;5082675;28;20248;-80
2022/11/18 07:01:15;;;;;;;20.50;11.13;;;4.50;99.90;;;;;;5096749;28;20207;-81
2022/11/18 07:03:43;;;;;;;19.03;9.90;;;4.40;99.90;;;;;;5085793;28;20198;-81
2022/11/18 07:06:11;;;;;;;21.50;11.37;;;4.40;99.90;;;;;;5093455;28;20216;-80
2022/11/18 07:08:39;;;;;;;21.07;11.40;;;4.50;99.90;;;;;;5089137;28;20218;-80
2022/11/18 07:11:08;;;;;;;22.37;11.93;;;4.50;99.90;;;;;;5086609;28;20226;-81
2022/11/18 07:13:35;;;;;;;18.63;9.93;;;4.50;99.90;;;;;;5096079;28;20193;-81
2022/11/18 07:16:04;;;;;;;18.37;10.27;;;4.40;99.90;;;;;;5082145;28;20215;-80
2022/11/18 07:18:33;;;;;;;22.37;11.13;;;4.50;99.90;;;;;;5103696;28;20221;-81
2022/11/18 07:21:04;;;;;;;22.53;13.77;;;4.40;99.90;;;;;;5091958;28;20202;-81
2022/11/18 07:23:31;;;;;;;21.77;12.23;;;4.30;99.90;;;;;;5091145;28;20203;-80
2022/11/18 07:25:58;;;;;;;22.63;11.10;;;4.30;99.90;;;;;;5104636;28;20206;-81
2022/11/18 07:28:25;;;;;;;20.70;10.57;;;4.40;99.90;;;;;;5088739;28;20220;-81
2022/11/18 07:30:52;;;;;;;23.30;11.27;;;4.30;99.90;;;;;;5098859;28;20690;-81
2022/11/18 07:33:19;;;;;;;23.33;11.10;;;4.30;99.90;;;;;;5101775;28;20197;-81
2022/11/18 07:35:47;;;;;;;25.93;12.27;;;4.30;99.90;;;;;;5093745;28;20636;-81
2022/11/18 07:38:14;;;;;;;23.20;11.80;;;4.30;99.90;;;;;;5084673;28;20268;-81
2022/11/18 07:40:40;;;;;;;22.10;10.37;;;4.50;99.90;;;;;;5080589;28;20193;-81
2022/11/18 07:43:07;;;;;;;26.17;11.70;;;4.20;99.90;;;;;;5086538;28;20208;-81
2022/11/18 07:45:34;;;;;;;23.37;11.80;;;4.20;99.90;;;;;;5094795;28;20202;-81
2022/11/18 07:48:01;;;;;;;24.07;11.97;;;4.20;99.90;;;;;;5093915;28;20232;-81
2022/11/18 07:50:28;;;;;;;23.37;11.90;;;4.20;99.90;;;;;;5084259;28;20197;-81
2022/11/18 07:52:57;;;;;;;23.23;11.57;;;4.20;99.90;;;;;;5085050;28;20202;-81
2022/11/18 07:55:24;;;;;;;24.03;12.27;;;4.20;99.90;;;;;;5097595;28;20209;-81
2022/11/18 07:57:51;;;;;;;26.47;13.77;;;4.20;99.90;;;;;;5096588;28;20247;-81
2022/11/18 08:00:19;;;;;;;24.33;12.40;;;4.20;99.90;;;;;;5102793;28;20224;-80
2022/11/18 08:02:50;;;;;;;25.63;13.07;;;4.20;99.90;;;;;;5093380;28;20201;-81
2022/11/18 08:05:17;;;;;;;24.77;11.80;;;4.30;99.90;;;;;;5098668;28;20206;-81
2022/11/18 08:07:44;;;;;;;23.73;11.27;;;4.20;99.90;;;;;;5091889;28;20564;-81
2022/11/18 08:10:12;;;;;;;26.07;13.37;;;4.20;99.90;;;;;;5089610;28;20216;-80
2022/11/18 08:12:39;;;;;;;25.83;13.50;;;4.30;99.90;;;;;;5078027;28;20574;-80
2022/11/18 08:15:07;;;;;;;25.03;13.33;;;4.30;99.90;;;;;;5091732;28;20198;-80
2022/11/18 08:17:34;;;;;;;26.50;13.30;;;4.20;99.90;;;;;;5090453;28;20260;-80
2022/11/18 08:20:01;;;;;;;25.27;14.47;;;4.10;99.90;;;;;;5103692;28;20246;-80
2022/11/18 08:22:28;;;;;;;26.23;13.43;;;4.10;99.90;;;;;;5084946;28;20266;-81
2022/11/18 08:24:54;;;;;;;27.50;14.50;;;4.10;99.90;;;;;;5094051;28;20219;-81
2022/11/18 08:27:22;;;;;;;28.30;13.20;;;4.00;99.90;;;;;;5076566;28;20233;-81
2022/11/18 08:29:49;;;;;;;28.57;14.60;;;4.00;99.90;;;;;;5092892;28;20239;-81
2022/11/18 08:32:16;;;;;;;30.47;15.73;;;3.90;99.90;;;;;;5090780;28;20249;-81
2022/11/18 08:34:43;;;;;;;32.47;16.43;;;3.90;99.90;;;;;;5097537;28;20197;-80
2022/11/18 08:37:10;;;;;;;36.30;17.50;;;4.00;99.90;;;;;;5090036;28;20239;-80
2022/11/18 08:39:37;;;;;;;34.67;18.23;;;4.10;99.90;;;;;;5092868;28;20201;-80
2022/11/18 08:42:03;;;;;;;33.37;16.60;;;4.10;99.90;;;;;;5091691;28;20236;-80
2022/11/18 08:44:33;;;;;;;29.97;13.70;;;4.00;99.90;;;;;;5104386;28;20201;-80
2022/11/18 08:47:00;;;;;;;30.33;14.43;;;3.90;99.90;;;;;;5094231;28;20205;-81
2022/11/18 08:49:27;;;;;;;27.97;14.23;;;3.80;99.90;;;;;;5084603;28;20212;-81
2022/11/18 08:51:54;;;;;;;32.40;15.13;;;3.80;99.90;;;;;;5087822;28;20228;-81
2022/11/18 08:54:20;;;;;;;33.27;15.97;;;3.70;99.90;;;;;;5088088;28;20205;-80
2022/11/18 08:56:49;;;;;;;35.10;17.33;;;3.70;99.90;;;;;;5081635;28;20214;-80
2022/11/18 08:59:16;;;;;;;34.67;16.63;;;3.70;99.90;;;;;;5094781;28;20206;-81
2022/11/18 09:01:44;;;;;;;31.97;16.33;;;3.70;99.90;;;;;;5101399;28;20229;-81
2022/11/18 09:04:11;;;;;;;33.43;16.00;;;3.70;99.90;;;;;;5100028;28;20213;-80
2022/11/18 09:06:39;;;;;;;32.97;15.70;;;3.70;99.90;;;;;;5096525;28;20197;-81
2022/11/18 09:09:06;;;;;;;37.20;18.10;;;3.70;99.90;;;;;;5086815;28;20222;-79
2022/11/18 09:11:32;;;;;;;34.33;17.90;;;3.70;99.90;;;;;;5095071;28;20198;-80
2022/11/18 09:14:00;;;;;;;35.80;19.33;;;3.70;99.90;;;;;;5079399;28;20198;-81
2022/11/18 09:16:29;;;;;;;34.33;16.60;;;3.70;99.90;;;;;;5092670;28;20237;-80
2022/11/18 09:18:58;;;;;;;31.13;16.67;;;3.80;99.90;;;;;;5098831;28;20225;-80
2022/11/18 09:21:25;;;;;;;36.20;17.77;;;3.60;99.90;;;;;;5094852;28;20221;-79
2022/11/18 09:23:52;;;;;;;33.37;16.53;;;3.80;99.90;;;;;;5089073;28;20207;-80
2022/11/18 09:26:21;;;;;;;34.67;17.67;;;3.70;99.90;;;;;;5106335;28;20221;-81
2022/11/18 09:28:48;;;;;;;32.50;16.73;;;3.60;99.90;;;;;;5090911;28;20294;-80
2022/11/18 09:31:16;;;;;;;33.93;16.30;;;3.70;99.90;;;;;;5098504;28;20206;-80
2022/11/18 09:33:43;;;;;;;32.83;17.00;;;3.60;99.90;;;;;;5105270;28;20553;-81
2022/11/18 09:36:14;;;;;;;37.10;20.20;;;3.60;99.90;;;;;;5098248;28;20201;-81
2022/11/18 09:38:41;;;;;;;34.00;19.63;;;3.70;99.90;;;;;;5076522;28;20237;-81
2022/11/18 09:41:23;;;;;;;37.40;19.60;;;3.60;99.90;;;;;;5099654;28;20204;-80
2022/11/18 09:44:03;;;;;;;35.53;18.07;;;3.60;99.90;;;;;;5081363;28;20198;-81
2022/11/18 09:46:36;;;;;;;38.07;19.03;;;3.50;99.90;;;;;;5092450;28;20198;-81
2022/11/18 09:49:14;;;;;;;34.97;18.63;;;3.60;99.90;;;;;;5082472;28;20221;-80
2022/11/18 09:51:45;;;;;;;32.40;16.30;;;3.60;99.90;;;;;;5090531;28;20204;-81
2022/11/18 09:54:19;;;;;;;30.47;16.70;;;3.40;99.90;;;;;;5089576;28;20198;-80
2022/11/18 09:56:47;;;;;;;34.57;17.37;;;3.50;99.90;;;;;;5101049;28;20199;-81
2022/11/18 09:59:15;;;;;;;29.60;15.57;;;3.50;99.90;;;;;;5089363;28;20205;-80
2022/11/18 10:01:43;;;;;;;31.60;18.07;;;3.40;99.90;;;;;;5087502;28;20855;-81
2022/11/18 10:04:15;;;;;;;32.87;18.77;;;3.40;99.90;;;;;;5091185;28;20201;-79
2022/11/18 10:06:44;;;;;;;30.57;16.63;;;3.50;99.90;;;;;;5097780;28;20259;-80
2022/11/18 10:09:21;;;;;;;30.80;17.23;;;3.40;99.90;;;;;;5095183;28;20707;-81
2022/11/18 10:12:01;;;;;;;29.70;16.70;;;3.50;99.90;;;;;;5090195;28;20194;-80
2022/11/18 10:14:50;;;;;;;32.87;17.53;;;3.50;99.90;;;;;;5086877;28;20645;-80
2022/11/18 10:17:31;;;;;;;33.37;16.90;;;3.60;99.90;;;;;;5096015;28;20850;-81
2022/11/18 10:20:16;;;;;;;29.67;17.07;;;3.40;99.90;;;;;;5100745;28;20209;-80
2022/11/18 10:22:49;;;;;;;29.87;18.30;;;3.40;99.90;;;;;;5089293;28;20752;-81
2022/11/18 10:25:18;;;;;;;32.10;18.30;;;3.40;99.90;;;;;;5084975;28;20202;-81
2022/11/18 10:27:47;;;;;;;32.10;18.10;;;3.40;99.90;;;;;;5095429;28;20229;-80
2022/11/18 10:30:16;;;;;;;33.77;18.47;;;3.50;99.90;;;;;;5089160;28;20212;-80
2022/11/18 10:32:57;;;;;;;31.23;17.50;;;3.50;99.90;;;;;;5093586;28;20623;-79
2022/11/18 10:35:28;;;;;;;30.63;16.57;;;3.40;99.90;;;;;;5099786;28;20204;-80
2022/11/18 10:38:05;;;;;;;33.77;18.03;;;3.40;99.90;;;;;;5095973;28;20224;-80
2022/11/18 10:40:33;;;;;;;31.00;17.70;;;3.40;99.90;;;;;;5093722;28;20202;-79
2022/11/18 10:43:00;;;;;;;31.30;17.33;;;3.40;99.90;;;;;;5095297;28;20211;-80
2022/11/18 10:45:29;;;;;;;30.87;16.57;;;3.30;99.90;;;;;;5104927;28;20216;-79
2022/11/18 10:48:02;;;;;;;30.07;17.73;;;3.20;99.90;;;;;;5092878;28;20218;-80
2022/11/18 10:50:32;;;;;;;31.27;17.83;;;3.30;99.90;;;;;;5083706;28;20204;-79
2022/11/18 10:52:59;;;;;;;27.70;15.50;;;3.30;99.90;;;;;;5095902;28;20198;-80
2022/11/18 10:55:28;;;;;;;30.10;17.37;;;3.20;99.90;;;;;;5101936;28;20193;-79
2022/11/18 10:57:59;;;;;;;33.43;18.40;;;3.20;99.90;;;;;;5090314;28;20593;-79
2022/11/18 11:00:40;;;;;;;31.37;17.73;;;3.20;99.90;;;;;;5079447;28;20210;-80
2022/11/18 11:03:38;;;;;;;30.77;17.70;;;3.40;99.90;;;;;;5095595;28;20268;-79
2022/11/18 11:06:30;;;;;;;31.67;17.50;;;3.40;99.90;;;;;;5091293;28;20197;-81
2022/11/18 11:08:59;;;;;;;29.47;16.93;;;3.20;99.90;;;;;;5090845;28;20304;-80
2022/11/18 11:11:29;;;;;;;32.80;18.13;;;3.20;99.90;;;;;;5107920;28;20688;-80
2022/11/18 11:14:13;;;;;;;32.67;18.83;;;3.30;99.90;;;;;;5091745;28;20315;-79
2022/11/18 11:16:49;;;;;;;29.80;17.30;;;3.20;99.90;;;;;;5101494;28;20204;-80
2022/11/18 11:19:19;;;;;;;31.90;18.47;;;3.10;99.90;;;;;;5087417;28;20205;-79
2022/11/18 11:21:46;;;;;;;33.97;19.00;;;3.10;99.90;;;;;;5096420;28;20673;-81
2022/11/18 11:24:13;;;;;;;31.67;17.70;;;3.00;99.90;;;;;;5087865;28;20206;-81
2022/11/18 11:26:47;;;;;;;28.93;17.20;;;3.00;99.90;;;;;;5094525;28;20209;-81
2022/11/18 11:29:25;;;;;;;33.23;19.77;;;3.00;99.90;;;;;;5084756;28;20201;-80
2022/11/18 11:32:01;;;;;;;31.70;17.67;;;3.10;99.90;;;;;;5090413;28;20212;-80
2022/11/18 11:34:36;;;;;;;36.23;21.30;;;3.10;99.90;;;;;;5075229;28;20198;-80
2022/11/18 11:37:17;;;;;;;37.43;21.90;;;3.00;99.90;;;;;;5091766;28;20213;-80
2022/11/18 11:40:07;;;;;;;34.63;21.17;;;3.00;99.90;;;;;;5096913;28;20207;-80
2022/11/18 11:42:46;;;;;;;38.27;22.27;;;3.00;99.90;;;;;;5091340;28;20228;-82
2022/11/18 11:45:24;;;;;;;37.10;20.57;;;2.90;99.90;;;;;;5094397;28;20209;-80
2022/11/18 11:48:17;;;;;;;36.80;22.10;;;2.90;99.90;;;;;;5086853;28;20222;-81
2022/11/18 11:50:55;;;;;;;38.30;20.67;;;2.90;99.90;;;;;;5102139;28;20201;-81
2022/11/18 11:53:45;;;;;;;37.53;20.37;;;2.80;99.90;;;;;;5087454;28;20682;-81
2022/11/18 11:56:18;;;;;;;37.93;21.30;;;2.70;99.90;;;;;;5093536;28;20670;-81
2022/11/18 11:59:13;;;;;;;36.93;20.93;;;2.80;99.90;;;;;;5094652;28;20217;-82
2022/11/18 12:01:55;;;;;;;36.93;21.27;;;2.80;99.90;;;;;;5088311;28;20642;-82
2022/11/18 12:04:34;;;;;;;37.07;20.17;;;2.80;99.90;;;;;;5091705;28;20226;-82
2022/11/18 12:07:03;;;;;;;36.27;20.47;;;2.70;99.90;;;;;;5088556;28;20206;-83
2022/11/18 12:09:45;;;;;;;36.23;19.67;;;2.90;99.90;;;;;;5084527;28;20203;-81
2022/11/18 12:12:34;;;;;;;34.80;20.10;;;2.90;99.90;;;;;;5102290;28;20185;-81
2022/11/18 12:15:16;;;;;;;30.93;17.93;;;2.90;99.90;;;;;;5099268;28;20200;-82
2022/11/18 12:17:51;;;;;;;38.00;21.70;;;2.80;99.90;;;;;;5096058;28;20217;-82
2022/11/18 12:20:45;;;;;;;33.67;18.50;;;2.80;99.90;;;;;;5109821;28;20235;-82
2022/11/18 12:23:18;;;;;;;35.30;21.10;;;2.80;99.90;;;;;;5096458;28;20708;-82
2022/11/18 12:25:53;;;;;;;37.03;20.37;;;2.70;99.90;;;;;;5100205;28;20201;-81
2022/11/18 12:28:35;;;;;;;38.30;22.77;;;2.80;99.90;;;;;;5097771;28;20217;-82
2022/11/18 12:31:35;;;;;;;36.73;19.97;;;2.80;99.90;;;;;;5087759;28;20194;-81
2022/11/18 12:34:31;;;;;;;35.23;19.17;;;2.60;99.90;;;;;;5086411;28;20201;-82
2022/11/18 12:37:39;;;;;;;39.27;21.17;;;2.70;99.90;;;;;;5107280;28;20681;-81
2022/11/18 12:40:08;;;;;;;39.13;21.77;;;2.70;99.90;;;;;;5103755;28;20200;-81
2022/11/18 12:46:06;;;;;;;39.13;22.57;;;2.60;99.90;;;;;;5103047;28;20623;-81
2022/11/18 12:48:40;;;;;;;39.27;21.93;;;2.60;99.90;;;;;;5086014;28;20561;-81
2022/11/18 12:51:48;;;;;;;36.97;22.03;;;2.60;99.90;;;;;;5094290;28;20217;-82
2022/11/18 12:54:31;;;;;;;37.10;22.00;;;2.70;99.90;;;;;;5093228;28;20579;-82
2022/11/18 12:57:00;;;;;;;36.47;20.77;;;2.60;99.90;;;;;;5101113;28;20201;-80
2022/11/18 12:59:29;;;;;;;34.90;19.87;;;2.70;99.90;;;;;;5093216;28;20215;-81
2022/11/18 13:02:22;;;;;;;32.73;18.77;;;2.60;99.90;;;;;;5101883;28;20207;-81
2022/11/18 13:05:10;;;;;;;33.13;18.83;;;2.70;99.90;;;;;;5078516;28;20198;-82
2022/11/18 13:10:33;;;;;;;35.13;19.77;;;2.60;99.90;;;;;;5088325;28;20340;-81
2022/11/18 13:13:00;;;;;;;33.80;18.47;;;2.60;99.90;;;;;;5086167;28;20198;-81
2022/11/18 13:18:15;;;;;;;33.73;18.27;;;2.70;99.90;;;;;;5089823;28;20225;-81